Echo Lake, CA

9:20 AM PDT on July 23, 2016 (GMT -0700)
MesoWest | | Change Station

Elev 7669 ft 38.85 °N, 120.08 °W | Updated 5 hours ago

Clear
Clear
51 °F
Feels Like 51 °F
N
Wind Variable Wind from North
Gusts 0.0 mph

Today
High -- | Low -- °F
--% Chance of Precip.
Yesterday
High -- | Low -- °F
Precip. -- in
Pressure 30.16 in
Visibility 10.0 miles
Clouds Clear
Dew Point Not available.
Humidity Not available.
Rainfall in
Snow Depth Not available.
5:54 AM 8:18 PM
Waning Gibbous, 84% visible
METAR KTVL 231553Z AUTO 05004KT 10SM CLR 16/02 A3031 RMK AO2 SLP213 T01560017
Pressure 30.16 in
Visibility 10.0 miles
Clouds Clear
Dew Point Not available.
Humidity Not available.
Rainfall in
Snow Depth Not available.
5:54 AM 8:18 PM
Waning Gibbous, 84% visible
METAR KTVL 231553Z AUTO 05004KT 10SM CLR 16/02 A3031 RMK AO2 SLP213 T01560017

10-Day Weather Forecast

Almanac

Astronomy

Jul. 23, 2016 Rise Set
Actual Time
Civil Twilight
Nautical Twilight
Astronomical Twilight
Moon
Length of Visible Light
Length of Day
Tomorrow will be .
, % of the Moon is Illuminated

Today's Extremes

State Highs State Lows

Community

WunderPhotos

Upload Photos

1,926,857 photos uploaded!

WunderBlog® & News

Nearby

Air Quality

  Air Quality AQ Index Pollutant
Not available.

Snow Depth

Station Depth Elevation

Earthquake Activity

City Distance Mag. Time & Date
Minimum magnitude displayed is 2.5.

Coastal Water Temperatures

Place Temperature

Stations

Nearby Weather Stations

Station Location Temp. Windchill Dew Point Humidity Wind Precip. Elev Updated Type
                   

Watches & Warnings

There are currently no watches in effect.